createdAt,value
2022-12-04T00:00:08.322Z,45.38
2022-12-04T00:00:27.309Z,43.97
2022-12-04T00:01:04.131Z,43.83
2022-12-04T00:01:19.632Z,44.63
2022-12-04T00:01:33.265Z,44.85
2022-12-04T00:01:45.937Z,45.03
2022-12-04T00:01:58.526Z,45.80
2022-12-04T00:02:11.285Z,45.88
2022-12-04T00:02:23.920Z,44.97
2022-12-04T00:02:36.674Z,44.65
2022-12-04T00:02:49.323Z,45.13
2022-12-04T00:03:02.017Z,45.10
2022-12-04T00:03:15.729Z,44.83
2022-12-04T00:03:28.696Z,45.17
2022-12-04T00:03:41.470Z,44.90
2022-12-04T00:03:55.547Z,45.22
2022-12-04T00:04:08.325Z,45.80
2022-12-04T00:04:20.988Z,45.95
2022-12-04T00:04:34.746Z,46.13
2022-12-04T00:04:47.441Z,45.80
2022-12-04T00:05:00.226Z,45.35
2022-12-04T00:05:13.118Z,45.25
2022-12-04T00:05:25.751Z,45.40
2022-12-04T00:05:38.318Z,45.53
2022-12-04T00:06:04.051Z,44.88
2022-12-04T00:06:18.274Z,44.90
2022-12-04T00:06:30.994Z,45.97
2022-12-04T00:06:43.569Z,45.70
2022-12-04T00:06:58.851Z,44.65
2022-12-04T00:07:11.796Z,44.08
2022-12-04T00:07:25.456Z,45.17
2022-12-04T00:07:38.347Z,46.28
2022-12-04T00:07:51.081Z,45.40
2022-12-04T00:08:03.906Z,44.92
2022-12-04T00:08:16.608Z,45.47
2022-12-04T00:08:29.226Z,45.30
2022-12-04T00:08:42.297Z,45.15
2022-12-04T00:08:55.846Z,45.25
2022-12-04T00:09:09.605Z,45.53
2022-12-04T00:09:22.487Z,45.38
2022-12-04T00:09:35.059Z,44.45
2022-12-04T00:09:47.673Z,44.47
2022-12-04T00:10:00.534Z,44.22
2022-12-04T00:10:13.189Z,44.28
2022-12-04T00:10:26.140Z,44.65
2022-12-04T00:10:43.542Z,44.40
2022-12-04T00:10:56.157Z,43.75
2022-12-04T00:11:11.433Z,43.72
2022-12-04T00:11:26.411Z,44.20
2022-12-04T00:11:39.454Z,44.67
2022-12-04T00:11:53.308Z,44.70
2022-12-04T00:12:06.313Z,44.48
2022-12-04T00:12:18.926Z,44.50
2022-12-04T00:12:31.577Z,44.88
2022-12-04T00:12:44.204Z,45.38
2022-12-04T00:12:56.780Z,45.17
2022-12-04T00:13:09.532Z,44.92
2022-12-04T00:13:22.172Z,46.00
2022-12-04T00:13:36.516Z,45.97
2022-12-04T00:13:49.991Z,44.85
2022-12-04T00:14:06.901Z,44.60
2022-12-04T00:14:20.103Z,44.55
2022-12-04T00:14:32.886Z,45.30
2022-12-04T00:15:23.501Z,43.80
2022-12-04T00:15:26.980Z,45.38
2022-12-04T00:15:42.944Z,45.95
2022-12-04T00:15:55.588Z,46.88
2022-12-04T00:16:12.260Z,46.38
2022-12-04T00:16:27.547Z,45.72
2022-12-04T00:16:40.356Z,44.97
2022-12-04T00:16:53.184Z,44.58
2022-12-04T00:17:06.812Z,45.85
2022-12-04T00:17:19.398Z,46.63
2022-12-04T00:17:32.056Z,45.70
2022-12-04T00:17:47.638Z,45.28
2022-12-04T00:18:00.262Z,45.35
2022-12-04T00:18:12.895Z,44.90
2022-12-04T00:18:25.667Z,44.70
2022-12-04T00:18:38.353Z,44.95
2022-12-04T00:18:52.309Z,44.95
2022-12-04T00:19:05.347Z,45.20
2022-12-04T00:19:17.970Z,44.00
2022-12-04T00:19:30.558Z,42.80
2022-12-04T00:19:43.186Z,43.35
2022-12-04T00:19:55.997Z,45.70
2022-12-04T00:20:09.628Z,46.25
2022-12-04T00:20:24.112Z,47.08
2022-12-04T00:20:39.707Z,47.20
2022-12-04T00:20:53.898Z,46.63
2022-12-04T00:21:08.893Z,45.47
2022-12-04T00:21:23.456Z,45.85
2022-12-04T00:21:36.557Z,46.30
2022-12-04T00:21:49.894Z,45.42
2022-12-04T00:22:03.492Z,45.28
2022-12-04T00:22:16.070Z,45.63
2022-12-04T00:22:28.664Z,46.40
2022-12-04T00:22:41.374Z,46.55
2022-12-04T00:22:54.030Z,46.75
2022-12-04T00:23:06.912Z,46.30
2022-12-04T00:23:19.485Z,45.70
2022-12-04T00:23:32.250Z,46.33
2022-12-04T00:23:45.949Z,46.42
2022-12-04T00:23:58.527Z,45.70
2022-12-04T00:24:11.285Z,45.00
2022-12-04T00:24:23.840Z,44.47
2022-12-04T00:24:36.847Z,44.97
2022-12-04T00:24:49.417Z,45.53
2022-12-04T00:25:03.018Z,46.03
2022-12-04T00:25:15.624Z,45.53
2022-12-04T00:25:30.310Z,44.97
2022-12-04T00:25:43.233Z,45.17
2022-12-04T00:26:00.340Z,45.95
2022-12-04T00:26:16.443Z,45.35
2022-12-04T00:26:31.145Z,44.83
2022-12-04T00:26:43.820Z,44.83
2022-12-04T00:26:56.520Z,45.03
2022-12-04T00:27:09.093Z,45.45
2022-12-04T00:27:21.696Z,45.10
2022-12-04T00:27:34.305Z,44.60
2022-12-04T00:27:47.878Z,45.10
2022-12-04T00:28:00.463Z,45.20
2022-12-04T00:28:13.056Z,44.60
2022-12-04T00:28:25.648Z,44.05
2022-12-04T00:28:38.554Z,45.13
2022-12-04T00:28:52.142Z,46.45
2022-12-04T00:29:05.003Z,46.28
2022-12-04T00:29:19.140Z,46.92
2022-12-04T00:29:31.731Z,47.20
2022-12-04T00:29:44.386Z,45.42
2022-12-04T00:29:57.161Z,44.67
2022-12-04T00:30:10.939Z,46.00
2022-12-04T00:30:23.566Z,46.38
2022-12-04T00:30:41.381Z,45.90
2022-12-04T00:30:53.954Z,44.63
2022-12-04T00:31:08.992Z,44.65
2022-12-04T00:31:23.890Z,44.90
2022-12-04T00:31:36.643Z,44.45
2022-12-04T00:31:50.391Z,44.88
2022-12-04T00:32:03.052Z,45.92
2022-12-04T00:32:16.016Z,46.20
2022-12-04T00:32:28.583Z,45.83
2022-12-04T00:32:41.407Z,44.30
2022-12-04T00:32:54.108Z,43.47
2022-12-04T00:33:06.699Z,44.20
2022-12-04T00:33:20.576Z,44.78
2022-12-04T00:33:33.706Z,44.88
2022-12-04T00:33:46.840Z,44.58
2022-12-04T00:34:00.743Z,44.03
2022-12-04T00:34:15.542Z,43.70
2022-12-04T00:34:28.368Z,44.08
2022-12-04T00:34:40.951Z,44.35
2022-12-04T00:34:53.559Z,45.25
2022-12-04T00:35:07.071Z,45.63
2022-12-04T00:35:19.714Z,45.35
2022-12-04T00:35:32.305Z,45.17
2022-12-04T00:35:45.867Z,45.13
2022-12-04T00:36:01.378Z,45.40
2022-12-04T00:36:16.050Z,44.88
2022-12-04T00:36:29.542Z,44.85
2022-12-04T00:36:42.145Z,44.97
2022-12-04T00:36:54.811Z,45.40
2022-12-04T00:37:08.400Z,44.88
2022-12-04T00:37:21.248Z,44.47
2022-12-04T00:37:33.942Z,44.67
2022-12-04T00:37:46.530Z,44.00
2022-12-04T00:37:59.134Z,44.53
2022-12-04T00:38:11.716Z,44.70
2022-12-04T00:38:24.381Z,44.60
2022-12-04T00:38:38.257Z,44.70
2022-12-04T00:38:52.678Z,44.92
2022-12-04T00:39:05.836Z,45.08
2022-12-04T00:39:18.390Z,45.47
2022-12-04T00:39:31.013Z,46.28
2022-12-04T00:39:43.634Z,46.40
2022-12-04T00:39:56.531Z,45.10
2022-12-04T00:40:10.972Z,45.35
2022-12-04T00:40:23.595Z,46.28
2022-12-04T00:40:36.182Z,46.25
2022-12-04T00:40:50.144Z,45.10
2022-12-04T00:41:03.236Z,44.75
2022-12-04T00:41:17.956Z,45.03
2022-12-04T00:41:33.351Z,44.17
2022-12-04T00:41:46.182Z,43.13
2022-12-04T00:41:58.746Z,43.83
2022-12-04T00:42:11.361Z,45.28
2022-12-04T00:42:23.991Z,45.80
2022-12-04T00:42:36.570Z,45.47
2022-12-04T00:42:50.184Z,44.65
2022-12-04T00:43:02.812Z,45.83
2022-12-04T00:43:15.470Z,46.13
2022-12-04T00:43:28.904Z,46.10
2022-12-04T00:43:41.708Z,45.25
2022-12-04T00:43:54.484Z,45.10
2022-12-04T00:44:07.094Z,45.33
2022-12-04T00:44:19.796Z,45.67
2022-12-04T00:44:33.441Z,46.08
2022-12-04T00:44:46.033Z,46.22
2022-12-04T00:44:58.628Z,46.17
2022-12-04T00:45:11.666Z,46.83
2022-12-04T00:45:24.292Z,46.72
2022-12-04T00:45:37.040Z,46.20
2022-12-04T00:45:50.106Z,45.22
2022-12-04T00:46:03.883Z,46.00
2022-12-04T00:46:17.639Z,46.05
2022-12-04T00:46:30.622Z,46.22
2022-12-04T00:46:43.225Z,47.15
2022-12-04T00:46:55.812Z,47.25
2022-12-04T00:47:08.514Z,46.33
2022-12-04T00:47:21.114Z,46.60
2022-12-04T00:47:34.672Z,46.22
2022-12-04T00:47:47.254Z,45.72
2022-12-04T00:47:59.808Z,45.85
2022-12-04T00:48:12.600Z,46.25
2022-12-04T00:48:25.631Z,45.90
2022-12-04T00:48:38.223Z,45.22
2022-12-04T00:48:51.145Z,45.55
2022-12-04T00:49:04.776Z,45.47
2022-12-04T00:49:17.362Z,44.75
2022-12-04T00:49:29.959Z,44.67
2022-12-04T00:49:42.544Z,44.95
2022-12-04T00:49:55.407Z,45.53
2022-12-04T00:50:09.339Z,45.35
2022-12-04T00:50:23.625Z,45.85
2022-12-04T00:50:38.142Z,45.53
2022-12-04T00:50:50.786Z,45.47
2022-12-04T00:51:05.785Z,44.88
2022-12-04T00:51:20.707Z,44.20
2022-12-04T00:51:33.296Z,43.50
2022-12-04T00:51:46.880Z,43.70
2022-12-04T00:51:59.460Z,44.13
2022-12-04T00:52:12.055Z,44.38
2022-12-04T00:52:24.719Z,44.75
2022-12-04T00:52:37.391Z,43.95
2022-12-04T00:52:49.949Z,43.53
2022-12-04T00:53:02.540Z,43.50
2022-12-04T00:53:15.342Z,44.33
2022-12-04T00:53:29.062Z,43.85
2022-12-04T00:53:41.998Z,43.15
2022-12-04T00:53:54.587Z,43.00
2022-12-04T00:54:07.371Z,42.80
2022-12-04T00:54:19.968Z,42.38
2022-12-04T00:54:32.558Z,42.47
2022-12-04T00:54:45.554Z,42.05
2022-12-04T00:54:59.162Z,41.92
2022-12-04T00:55:12.053Z,42.20
2022-12-04T00:55:26.813Z,42.67
2022-12-04T00:55:39.968Z,42.90
2022-12-04T00:55:52.552Z,42.65
2022-12-04T00:56:07.150Z,43.97
2022-12-04T00:56:21.642Z,43.35
2022-12-04T00:56:35.217Z,42.95
2022-12-04T00:56:47.835Z,43.05
2022-12-04T00:57:00.403Z,43.33
2022-12-04T00:57:13.012Z,43.10
2022-12-04T00:57:25.625Z,42.40
2022-12-04T00:57:38.239Z,41.83
2022-12-04T00:57:53.637Z,42.75
2022-12-04T00:58:09.546Z,42.90
2022-12-04T00:58:22.145Z,42.85
2022-12-04T00:58:34.740Z,43.03
2022-12-04T00:58:48.235Z,42.63
2022-12-04T00:59:01.693Z,41.35
2022-12-04T00:59:15.553Z,41.78
2022-12-04T00:59:28.309Z,43.05
2022-12-04T00:59:40.920Z,43.60
2022-12-04T00:59:53.893Z,42.92
2022-12-04T01:00:08.100Z,42.58
2022-12-04T01:00:20.699Z,42.33
2022-12-04T01:00:33.425Z,43.33
2022-12-04T01:00:47.054Z,42.70
2022-12-04T01:01:03.701Z,42.15
2022-12-04T01:01:20.645Z,42.50
2022-12-04T01:01:33.430Z,43.20
2022-12-04T01:01:46.175Z,43.55
2022-12-04T01:01:58.794Z,42.75
2022-12-04T01:02:12.508Z,42.78
2022-12-04T01:02:25.147Z,42.88
2022-12-04T01:02:37.836Z,42.33
2022-12-04T01:02:50.545Z,42.60
2022-12-04T01:03:04.121Z,42.20
2022-12-04T01:03:16.850Z,42.53
2022-12-04T01:03:29.566Z,43.03
2022-12-04T01:03:43.168Z,43.05
2022-12-04T01:03:57.299Z,41.70
2022-12-04T01:04:09.894Z,42.10
2022-12-04T01:04:22.546Z,43.00
2022-12-04T01:04:35.292Z,43.00
2022-12-04T01:04:48.171Z,42.65
2022-12-04T01:05:01.453Z,42.70
2022-12-04T01:05:14.184Z,43.35
2022-12-04T01:05:27.871Z,43.00
2022-12-04T01:05:41.519Z,42.70
2022-12-04T01:05:54.297Z,42.72
2022-12-04T01:06:17.113Z,42.88
2022-12-04T01:06:31.469Z,42.70
2022-12-04T01:06:45.064Z,43.30
2022-12-04T01:07:03.240Z,43.13
2022-12-04T01:07:17.728Z,42.92
2022-12-04T01:07:30.361Z,44.22
2022-12-04T01:07:43.036Z,43.92
2022-12-04T01:07:56.016Z,43.10
2022-12-04T01:08:09.335Z,42.47
2022-12-04T01:08:22.928Z,42.20
2022-12-04T01:08:35.517Z,42.13
2022-12-04T01:08:48.715Z,42.10
2022-12-04T01:09:03.974Z,41.97
2022-12-04T01:09:16.645Z,42.63
2022-12-04T01:09:30.258Z,43.33
2022-12-04T01:09:42.905Z,43.38
2022-12-04T01:09:55.717Z,43.05
2022-12-04T01:10:12.326Z,42.40
2022-12-04T01:10:24.973Z,42.42
2022-12-04T01:10:38.799Z,42.58
2022-12-04T01:10:51.453Z,42.88
2022-12-04T01:11:07.971Z,43.17
2022-12-04T01:11:21.424Z,42.60
2022-12-04T01:11:34.214Z,41.58
2022-12-04T01:11:46.823Z,41.17
2022-12-04T01:11:59.417Z,41.30
2022-12-04T01:12:17.552Z,42.03
2022-12-04T01:12:34.160Z,42.22
2022-12-04T01:12:49.628Z,42.20
2022-12-04T01:13:02.251Z,42.03
2022-12-04T01:13:14.839Z,41.72
2022-12-04T01:13:27.489Z,41.95
2022-12-04T01:13:40.068Z,42.67
2022-12-04T01:13:52.887Z,42.60
2022-12-04T01:14:06.500Z,41.67
2022-12-04T01:14:19.114Z,41.10
2022-12-04T01:14:31.814Z,41.45
2022-12-04T01:14:44.420Z,41.83
2022-12-04T01:14:57.080Z,42.20
2022-12-04T01:15:10.595Z,43.22
2022-12-04T01:15:23.573Z,43.40
2022-12-04T01:15:40.437Z,42.55
2022-12-04T01:15:53.043Z,41.95
2022-12-04T01:16:05.827Z,42.03
2022-12-04T01:16:21.509Z,42.33
2022-12-04T01:16:37.316Z,42.42
2022-12-04T01:16:51.357Z,42.47
2022-12-04T01:17:04.053Z,42.78
2022-12-04T01:17:16.990Z,42.42
2022-12-04T01:17:29.589Z,43.13
2022-12-04T01:17:42.360Z,42.53
2022-12-04T01:17:54.929Z,42.55
2022-12-04T01:18:07.529Z,42.35
2022-12-04T01:18:20.123Z,42.95
2022-12-04T01:18:33.668Z,42.90
2022-12-04T01:18:46.649Z,41.83
2022-12-04T01:18:59.807Z,40.65
2022-12-04T01:19:12.832Z,40.85
2022-12-04T01:19:25.415Z,42.05
2022-12-04T01:19:38.037Z,42.55
2022-12-04T01:19:50.644Z,41.65
2022-12-04T01:20:04.902Z,41.78
2022-12-04T01:20:17.973Z,41.75
2022-12-04T01:20:30.562Z,40.25
2022-12-04T01:20:48.808Z,39.28
2022-12-04T01:21:01.412Z,40.33
2022-12-04T01:21:16.519Z,40.75
2022-12-04T01:21:29.136Z,41.22
2022-12-04T01:21:42.768Z,41.53
2022-12-04T01:21:55.350Z,41.42
2022-12-04T01:22:07.999Z,41.47
2022-12-04T01:22:20.672Z,40.85
2022-12-04T01:22:33.422Z,40.33
2022-12-04T01:22:46.021Z,40.70
2022-12-04T01:22:58.614Z,41.03
2022-12-04T01:23:29.763Z,41.63
2022-12-04T01:23:42.420Z,41.40
2022-12-04T01:23:55.056Z,41.10
2022-12-04T01:24:08.201Z,40.90
2022-12-04T01:24:20.830Z,41.63
2022-12-04T01:24:33.416Z,42.30
2022-12-04T01:24:45.979Z,42.28
2022-12-04T01:24:58.583Z,41.28
2022-12-04T01:25:12.591Z,41.13
2022-12-04T01:25:25.444Z,41.53
2022-12-04T01:25:38.025Z,41.00
2022-12-04T01:25:52.301Z,40.45
2022-12-04T01:26:05.113Z,41.40
2022-12-04T01:26:17.778Z,41.80
2022-12-04T01:26:30.515Z,41.13
2022-12-04T01:26:44.110Z,40.58
2022-12-04T01:26:56.778Z,40.00
2022-12-04T01:27:09.446Z,40.05
2022-12-04T01:27:22.184Z,40.20
2022-12-04T01:27:34.824Z,41.65
2022-12-04T01:27:47.407Z,42.08
2022-12-04T01:28:00.120Z,42.60
2022-12-04T01:28:13.712Z,42.72
2022-12-04T01:28:26.888Z,41.65
2022-12-04T01:28:39.664Z,40.88
2022-12-04T01:28:52.227Z,40.35
2022-12-04T01:29:04.953Z,40.28
2022-12-04T01:29:17.567Z,40.47
2022-12-04T01:29:30.199Z,40.75
2022-12-04T01:29:44.044Z,40.80
2022-12-04T01:29:57.070Z,41.15
2022-12-04T01:30:10.758Z,41.10
2022-12-04T01:30:23.483Z,40.78
2022-12-04T01:30:36.072Z,41.17
2022-12-04T01:30:58.780Z,40.90
2022-12-04T01:31:15.226Z,40.65
2022-12-04T01:31:28.054Z,40.45
2022-12-04T01:31:40.736Z,40.47
2022-12-04T01:31:53.463Z,40.45
2022-12-04T01:32:06.550Z,40.63
2022-12-04T01:32:20.161Z,41.33
2022-12-04T01:32:32.743Z,41.20
2022-12-04T01:32:45.326Z,41.63
2022-12-04T01:32:57.901Z,40.92
2022-12-04T01:33:10.501Z,40.45
2022-12-04T01:33:23.058Z,40.78
2022-12-04T01:33:37.192Z,40.85
2022-12-04T01:33:51.885Z,39.90
2022-12-04T01:34:04.493Z,40.45
2022-12-04T01:34:17.464Z,41.33
2022-12-04T01:34:30.094Z,41.58
2022-12-04T01:34:42.728Z,40.78
2022-12-04T01:34:55.338Z,40.40
2022-12-04T01:35:08.755Z,40.72
2022-12-04T01:35:22.372Z,40.90
2022-12-04T01:35:34.973Z,40.75
2022-12-04T01:35:53.052Z,41.33
2022-12-04T01:36:08.261Z,41.92
2022-12-04T01:36:24.211Z,41.25
2022-12-04T01:36:37.904Z,41.25
2022-12-04T01:36:50.465Z,41.28
2022-12-04T01:37:03.071Z,40.88
2022-12-04T01:37:15.697Z,41.25
2022-12-04T01:37:30.636Z,40.55
2022-12-04T01:37:43.228Z,40.22
2022-12-04T01:37:55.823Z,40.85
2022-12-04T01:38:08.397Z,40.80
2022-12-04T01:38:21.072Z,41.58
2022-12-04T01:38:35.763Z,41.22
2022-12-04T01:38:49.039Z,40.88
2022-12-04T01:39:01.729Z,40.88
2022-12-04T01:39:14.338Z,41.38
2022-12-04T01:39:26.959Z,41.88
2022-12-04T01:39:39.543Z,41.45
2022-12-04T01:39:52.294Z,40.90
2022-12-04T01:40:07.262Z,41.12
2022-12-04T01:40:20.239Z,41.55
2022-12-04T01:40:32.839Z,41.25
2022-12-04T01:40:45.419Z,40.80
2022-12-04T01:40:58.334Z,41.53
2022-12-04T01:41:13.029Z,41.47
2022-12-04T01:41:27.454Z,41.45
2022-12-04T01:41:41.831Z,41.28
2022-12-04T01:41:54.404Z,41.22
2022-12-04T01:42:07.211Z,41.20
2022-12-04T01:42:19.813Z,40.33
2022-12-04T01:42:32.455Z,41.10
2022-12-04T01:42:45.026Z,41.53
2022-12-04T01:42:59.956Z,41.67
2022-12-04T01:43:12.989Z,41.78
2022-12-04T01:43:28.464Z,41.17
2022-12-04T01:43:41.322Z,40.85
2022-12-04T01:44:10.850Z,41.13
2022-12-04T01:44:25.643Z,39.88
2022-12-04T01:45:18.043Z,39.83
2022-12-04T01:45:41.746Z,41.65
2022-12-04T01:45:55.411Z,40.08
2022-12-04T01:46:09.012Z,40.08
2022-12-04T01:46:22.729Z,40.47
2022-12-04T01:46:35.426Z,40.42
2022-12-04T01:46:51.516Z,40.75
2022-12-04T01:47:04.088Z,42.20
2022-12-04T01:47:16.938Z,41.88
2022-12-04T01:47:29.630Z,41.75
2022-12-04T01:47:42.322Z,42.05
2022-12-04T01:47:58.526Z,41.95
2022-12-04T01:48:19.087Z,41.83
2022-12-04T01:48:34.985Z,41.65
2022-12-04T01:48:52.271Z,42.13
2022-12-04T01:49:07.477Z,41.85
2022-12-04T01:49:23.423Z,40.75
2022-12-04T01:49:39.724Z,41.20
2022-12-04T01:49:52.501Z,42.20
2022-12-04T01:50:07.212Z,42.20
2022-12-04T01:50:19.795Z,41.33
2022-12-04T01:50:32.558Z,40.95
2022-12-04T01:50:48.520Z,40.97
2022-12-04T01:51:05.423Z,40.38
2022-12-04T01:51:21.066Z,41.10
2022-12-04T01:51:40.154Z,40.90
2022-12-04T01:51:56.410Z,40.20
2022-12-04T01:52:14.097Z,40.50
2022-12-04T01:52:27.064Z,40.50
2022-12-04T01:52:40.003Z,40.92
2022-12-04T01:52:52.681Z,41.42
2022-12-04T01:53:06.377Z,41.45
2022-12-04T01:53:20.307Z,40.75
2022-12-04T01:53:35.695Z,40.38
2022-12-04T01:53:53.149Z,40.67
2022-12-04T01:54:11.046Z,40.90
2022-12-04T01:54:28.729Z,40.40
2022-12-04T01:54:45.085Z,40.83
2022-12-04T01:55:00.817Z,40.88
2022-12-04T01:55:13.617Z,40.63
2022-12-04T01:55:26.427Z,40.40
2022-12-04T01:55:40.783Z,40.33
2022-12-04T01:55:53.959Z,40.22
2022-12-04T01:56:07.625Z,40.83
2022-12-04T01:56:24.077Z,41.15
2022-12-04T01:56:40.905Z,41.13
2022-12-04T01:56:58.215Z,41.33
2022-12-04T01:57:14.322Z,42.22
2022-12-04T01:57:29.711Z,41.47
2022-12-04T01:57:42.678Z,40.88
2022-12-04T01:57:57.023Z,41.80
2022-12-04T01:58:10.287Z,41.35
2022-12-04T01:58:26.956Z,41.63
2022-12-04T01:58:43.328Z,43.25
2022-12-04T01:58:59.249Z,42.75
2022-12-04T01:59:15.601Z,41.58
2022-12-04T01:59:32.772Z,40.92
2022-12-04T01:59:50.583Z,41.15
2022-12-04T02:00:08.540Z,40.75
2022-12-04T02:00:22.525Z,40.55
2022-12-04T02:00:35.215Z,40.97
2022-12-04T02:00:55.731Z,42.30
2022-12-04T02:01:10.958Z,43.40
2022-12-04T02:01:24.157Z,42.75
2022-12-04T02:01:42.882Z,42.50
2022-12-04T02:02:01.887Z,42.08
2022-12-04T02:02:19.059Z,41.90
2022-12-04T02:02:35.116Z,42.55
2022-12-04T02:02:48.645Z,40.63
2022-12-04T02:03:01.837Z,38.20
2022-12-04T02:03:15.145Z,38.30
2022-12-04T02:03:28.749Z,38.40
2022-12-04T02:03:41.487Z,40.90
2022-12-04T02:03:54.524Z,41.70
2022-12-04T02:04:07.108Z,41.10
2022-12-04T02:04:19.857Z,41.58
2022-12-04T02:04:34.849Z,42.33
2022-12-04T02:04:49.020Z,41.22
2022-12-04T02:05:03.578Z,40.92
2022-12-04T02:05:19.301Z,41.78
2022-12-04T02:05:31.909Z,41.55
2022-12-04T02:05:44.507Z,41.10
2022-12-04T02:05:57.107Z,41.65
2022-12-04T02:06:09.713Z,41.75
2022-12-04T02:06:22.301Z,42.35
2022-12-04T02:06:37.253Z,41.95
2022-12-04T02:06:49.897Z,42.05
2022-12-04T02:07:02.908Z,42.60
2022-12-04T02:07:15.589Z,42.60
2022-12-04T02:07:28.691Z,42.90
2022-12-04T02:07:43.568Z,43.45
2022-12-04T02:08:01.389Z,42.35
2022-12-04T02:08:14.076Z,40.67
2022-12-04T02:08:28.347Z,40.80
2022-12-04T02:08:41.278Z,41.15
2022-12-04T02:08:54.088Z,41.53
2022-12-04T02:09:06.979Z,41.67
2022-12-04T02:09:26.887Z,41.25
2022-12-04T02:09:41.884Z,41.35
2022-12-04T02:09:56.459Z,40.38
2022-12-04T02:10:10.257Z,40.50
2022-12-04T02:10:28.482Z,40.97
2022-12-04T02:10:50.642Z,42.03
2022-12-04T02:11:15.085Z,41.88
2022-12-04T02:11:33.502Z,40.90
2022-12-04T02:11:52.442Z,40.10
2022-12-04T02:12:12.021Z,39.63
2022-12-04T02:12:33.007Z,40.45
2022-12-04T02:12:51.257Z,41.88
2022-12-04T02:13:12.632Z,41.03
2022-12-04T02:13:32.774Z,41.38
2022-12-04T02:13:57.046Z,41.35
2022-12-04T02:14:20.298Z,42.13
2022-12-04T02:14:45.681Z,41.65
2022-12-04T02:15:06.261Z,41.75
2022-12-04T02:15:28.150Z,42.13
2022-12-04T02:15:48.874Z,40.35
2022-12-04T02:16:09.923Z,40.72
2022-12-04T02:16:30.961Z,42.33
2022-12-04T02:16:51.024Z,41.55
2022-12-04T02:17:13.053Z,39.30
2022-12-04T02:17:33.170Z,40.65
2022-12-04T02:17:53.848Z,41.13
2022-12-04T02:18:14.411Z,41.72
2022-12-04T02:18:33.859Z,42.58
2022-12-04T02:18:55.584Z,42.47
2022-12-04T02:19:26.364Z,43.30
2022-12-04T02:20:01.594Z,40.33
2022-12-04T02:20:25.381Z,41.10
2022-12-04T02:20:43.494Z,40.52
2022-12-04T02:21:05.294Z,40.85
2022-12-04T02:21:22.086Z,41.83
2022-12-04T02:21:38.012Z,42.33
2022-12-04T02:21:55.741Z,40.90
2022-12-04T02:22:17.013Z,41.72
2022-12-04T02:22:48.383Z,42.03
2022-12-04T02:23:34.530Z,41.50
2022-12-04T02:24:10.040Z,41.40
2022-12-04T02:24:46.769Z,41.15
2022-12-04T02:25:09.149Z,41.47
2022-12-04T02:25:29.525Z,40.30
2022-12-04T02:25:49.383Z,40.70
2022-12-04T02:26:17.843Z,41.08
2022-12-04T02:26:40.430Z,42.10
2022-12-04T02:27:00.085Z,41.20
2022-12-04T02:27:24.518Z,40.92
2022-12-04T02:28:02.660Z,41.65
2022-12-04T02:28:23.760Z,41.45
2022-12-04T02:28:44.413Z,42.28
2022-12-04T02:29:02.811Z,42.70
2022-12-04T02:29:35.234Z,43.13
2022-12-04T02:29:56.403Z,41.40
2022-12-04T02:30:12.793Z,42.05
2022-12-04T02:30:27.545Z,42.03
2022-12-04T02:30:42.922Z,41.38
2022-12-04T02:30:59.854Z,41.88
2022-12-04T02:31:17.065Z,41.75
2022-12-04T02:31:34.891Z,41.75
2022-12-04T02:31:56.417Z,42.45
2022-12-04T02:32:19.995Z,42.58
2022-12-04T02:32:38.551Z,42.40
2022-12-04T02:32:58.770Z,43.35
2022-12-04T02:33:18.621Z,43.83
2022-12-04T02:33:40.155Z,42.63
2022-12-04T02:34:01.392Z,42.42
2022-12-04T02:34:18.286Z,43.17
2022-12-04T02:34:40.419Z,42.85
2022-12-04T02:34:59.276Z,42.03
2022-12-04T02:35:17.794Z,42.50
2022-12-04T02:35:35.991Z,42.88
2022-12-04T02:35:55.608Z,43.17
2022-12-04T02:36:11.707Z,42.10
2022-12-04T02:36:27.676Z,40.83
2022-12-04T02:36:48.041Z,40.47
2022-12-04T02:37:07.581Z,41.72
2022-12-04T02:37:27.152Z,41.47
2022-12-04T02:37:44.881Z,41.65
2022-12-04T02:38:03.203Z,42.40
2022-12-04T02:38:24.694Z,42.80
2022-12-04T02:38:42.136Z,41.85
2022-12-04T02:38:58.997Z,41.13
2022-12-04T02:39:18.604Z,41.78
2022-12-04T02:39:36.533Z,39.67
2022-12-04T02:39:56.383Z,40.88
2022-12-04T02:40:17.067Z,42.45
2022-12-04T02:40:33.903Z,42.63
2022-12-04T02:40:52.886Z,42.90
2022-12-04T02:41:09.925Z,42.50
2022-12-04T02:41:26.092Z,43.20
2022-12-04T02:41:43.675Z,43.33
2022-12-04T02:42:03.278Z,43.14
2022-12-04T02:42:23.543Z,42.58
2022-12-04T02:42:40.528Z,42.65
2022-12-04T02:42:59.973Z,41.03
2022-12-04T02:43:17.862Z,41.80
2022-12-04T02:43:35.789Z,43.72
2022-12-04T02:43:52.189Z,43.90
2022-12-04T02:44:11.008Z,42.38
2022-12-04T02:44:28.036Z,43.00
2022-12-04T02:44:45.274Z,43.70
2022-12-04T02:45:02.504Z,43.20
2022-12-04T02:45:18.574Z,42.72
2022-12-04T02:45:35.751Z,43.13
2022-12-04T02:45:55.750Z,42.65
2022-12-04T02:46:12.044Z,42.78
2022-12-04T02:46:30.897Z,42.35
2022-12-04T02:46:48.002Z,43.17
2022-12-04T02:47:05.805Z,43.80
2022-12-04T02:47:22.450Z,43.35
2022-12-04T02:47:36.833Z,43.35
2022-12-04T02:47:52.232Z,44.00
2022-12-04T02:48:07.962Z,43.53
2022-12-04T02:48:22.421Z,43.13
2022-12-04T02:48:38.771Z,43.00
2022-12-04T02:48:55.698Z,42.45
2022-12-04T02:49:14.061Z,42.78
2022-12-04T02:49:32.511Z,43.15
2022-12-04T02:49:49.473Z,43.25
2022-12-04T02:50:05.314Z,43.13
2022-12-04T02:50:22.230Z,42.42
2022-12-04T02:50:39.615Z,42.53
2022-12-04T02:50:56.896Z,43.25
2022-12-04T02:51:13.473Z,43.97
2022-12-04T02:51:28.417Z,43.25
2022-12-04T02:51:45.005Z,42.95
2022-12-04T02:51:59.851Z,43.22
2022-12-04T02:52:18.146Z,43.60
2022-12-04T02:52:35.411Z,43.22
2022-12-04T02:52:53.305Z,42.35
2022-12-04T02:53:10.333Z,42.38
2022-12-04T02:53:29.319Z,42.15
2022-12-04T02:53:45.948Z,42.40
2022-12-04T02:54:02.983Z,42.42
2022-12-04T02:54:22.543Z,42.45
2022-12-04T02:54:40.522Z,43.10
2022-12-04T02:54:57.939Z,42.50
2022-12-04T02:55:16.559Z,42.67
2022-12-04T02:55:33.616Z,44.30
2022-12-04T02:55:51.607Z,44.22
2022-12-04T02:56:11.367Z,42.95
2022-12-04T02:56:28.747Z,42.25
2022-12-04T02:56:44.347Z,42.40
2022-12-04T02:56:58.693Z,41.60
2022-12-04T02:57:16.143Z,41.67
2022-12-04T02:57:35.262Z,43.03
2022-12-04T02:57:51.497Z,44.05
2022-12-04T02:58:13.088Z,43.50
2022-12-04T02:58:30.428Z,42.70
2022-12-04T02:58:47.338Z,42.65
2022-12-04T02:59:04.476Z,42.45
2022-12-04T02:59:21.545Z,42.65
2022-12-04T02:59:37.885Z,42.50
2022-12-04T02:59:51.923Z,42.95
2022-12-04T03:00:08.572Z,42.78
2022-12-04T03:00:22.352Z,42.55
2022-12-04T03:00:37.279Z,43.05
2022-12-04T03:00:52.871Z,43.05
2022-12-04T03:01:19.478Z,43.45
2022-12-04T03:01:38.941Z,42.78
2022-12-04T03:01:55.979Z,42.33
2022-12-04T03:02:12.752Z,42.20
2022-12-04T03:02:29.677Z,42.47
2022-12-04T03:02:49.831Z,42.75
2022-12-04T03:03:08.151Z,42.72
2022-12-04T03:03:23.740Z,42.92
2022-12-04T03:03:37.212Z,42.10
2022-12-04T03:03:54.185Z,42.13
2022-12-04T03:04:13.877Z,42.63
2022-12-04T03:04:30.737Z,43.00
2022-12-04T03:04:50.655Z,42.15
2022-12-04T03:05:08.411Z,41.08
2022-12-04T03:05:27.800Z,41.42
2022-12-04T03:05:43.627Z,42.70
2022-12-04T03:06:00.660Z,42.50
2022-12-04T03:06:15.589Z,41.66
2022-12-04T03:06:32.936Z,41.92
2022-12-04T03:06:49.666Z,43.00
2022-12-04T03:07:07.046Z,42.78
2022-12-04T03:07:26.323Z,41.38
2022-12-04T03:07:44.314Z,42.63
2022-12-04T03:08:02.350Z,42.72
2022-12-04T03:08:20.615Z,42.13
2022-12-04T03:08:37.671Z,41.63
2022-12-04T03:08:55.177Z,41.85
2022-12-04T03:09:14.012Z,43.10
2022-12-04T03:09:32.967Z,42.50
2022-12-04T03:09:52.488Z,41.58
2022-12-04T03:10:12.234Z,42.03
2022-12-04T03:10:29.844Z,41.65
2022-12-04T03:10:49.379Z,40.70
2022-12-04T03:11:03.192Z,42.88
2022-12-04T03:11:16.129Z,43.25
2022-12-04T03:11:34.086Z,42.92
2022-12-04T03:11:52.813Z,41.78
2022-12-04T03:12:10.639Z,41.22
2022-12-04T03:12:30.353Z,42.50
2022-12-04T03:12:48.671Z,43.28
2022-12-04T03:13:06.407Z,42.58
2022-12-04T03:13:24.169Z,42.95
2022-12-04T03:13:41.831Z,42.65
2022-12-04T03:14:00.847Z,42.42
2022-12-04T03:14:20.255Z,41.90
2022-12-04T03:14:36.607Z,41.88
2022-12-04T03:14:55.297Z,42.38
2022-12-04T03:15:12.422Z,43.15
2022-12-04T03:15:29.689Z,42.72
2022-12-04T03:15:45.903Z,42.83
2022-12-04T03:16:05.196Z,42.90
2022-12-04T03:16:23.201Z,43.85
2022-12-04T03:16:40.885Z,43.03
2022-12-04T03:16:58.314Z,42.88